This is the latest recevied weather packets stored in our database for station/object E22ZMG-1. If no packets are shown the sender has not sent any weather packets the latest 10 day(s).
| Time | Temp. | Humidity | Pressure | Rain* | Wind** | Luminosity | Snow |
|---|---|---|---|---|---|---|---|
| 1778162757 | 35° C | 48% | 974 hPa | - | - | 0 W/m² | - |
| 1778162132 | 36.11° C | 42% | 974 hPa | - | - | 0 W/m² | - |
| 1778161507 | 36.11° C | 43% | 973 hPa | - | - | 0 W/m² | - |
| 1778160882 | 36.11° C | 43% | 973 hPa | - | - | 0 W/m² | - |
| 1778160257 | 36.11° C | 43% | 973 hPa | - | - | 0 W/m² | - |
| 1778159632 | 36.67° C | 41% | 972 hPa | - | - | 0 W/m² | - |
| 1778159007 | 36.67° C | 41% | 972 hPa | - | - | 0 W/m² | - |
| 1778158381 | 36.67° C | 41% | 972 hPa | - | - | 0 W/m² | - |
| 1778157754 | 36.11° C | 42% | 972 hPa | - | - | 0 W/m² | - |
| 1778157127 | 36.67° C | 40% | 972 hPa | - | - | 0 W/m² | - |
| 1778156499 | 36.67° C | 40% | 972 hPa | - | - | 0 W/m² | - |
| 1778155866 | 38.33° C | 38% | 971 hPa | - | - | 0 W/m² | - |
| 1778155240 | 37.78° C | 38% | 971 hPa | - | - | 0 W/m² | - |
| 1778154614 | 38.89° C | 36% | 970 hPa | - | - | 0 W/m² | - |
| 1778153987 | 38.89° C | 36% | 970 hPa | - | - | 0 W/m² | - |
| 1778153361 | 38.89° C | 36% | 970 hPa | - | - | 0 W/m² | - |
| 1778152734 | 38.89° C | 35% | 970 hPa | - | - | 0 W/m² | - |
| 1778152108 | 40° C | 32% | 969 hPa | - | - | 0 W/m² | - |
| 1778151482 | 41.11° C | 30% | 969 hPa | - | - | 0 W/m² | - |
| 1778150857 | 40.56° C | 31% | 969 hPa | - | - | 0 W/m² | - |
| 1778150232 | 41.11° C | 31% | 969 hPa | - | - | 0 W/m² | - |
| 1778149605 | 41.67° C | 32% | 968 hPa | - | - | 0 W/m² | - |
| 1778148979 | 41.11° C | 33% | 968 hPa | - | - | 0 W/m² | - |
| 1778148354 | 41.11° C | 33% | 969 hPa | - | - | 0 W/m² | - |
| 1778147729 | 41.11° C | 33% | 969 hPa | - | - | 0 W/m² | - |
* Rain since midnight (hover to see other rain measurements)
** Current wind speed in m/s (hover to see current wind gust speed)